Time;durP1;ratioP1;P1;durP2;ratioP2;P2;SDS_P1;SDS_P2;PMS_P1;PMS_P2;Temp;Humidity;BMP_temperature;BMP_pressure;BME280_temperature;BME280_humidity;BME280_pressure;Samples;Min_cycle;Max_cycle;Signal;HPM_P1;HPM_P2
2024/04/10 00:01:04;;;;;;;0.20;0.10;;;;;;;23.83;39.40;101381.16;5189625;27;20234;-67
2024/04/10 00:03:31;;;;;;;0.20;0.10;;;;;;;23.82;39.50;101388.59;5193284;27;20234;-67
2024/04/10 00:05:58;;;;;;;0.20;0.10;;;;;;;23.81;39.57;101386.94;5200025;27;20235;-66
2024/04/10 00:08:25;;;;;;;0.20;0.10;;;;;;;23.81;39.57;101395.19;5185031;27;20880;-67
2024/04/10 00:10:53;;;;;;;0.20;0.10;;;;;;;23.80;39.51;101389.91;5191319;27;20346;-67
2024/04/10 00:13:19;;;;;;;0.20;0.10;;;;;;;-146.84;100.00;66378.44;5195601;27;20735;-67
2024/04/10 00:15:45;;;;;;;0.20;0.10;;;;;;;23.78;39.70;101400.31;5190806;27;20231;-67
2024/04/10 00:18:11;;;;;;;0.20;0.10;;;;;;;23.77;39.50;101405.00;5178201;27;20274;-67
2024/04/10 00:20:37;;;;;;;0.20;0.10;;;;;;;23.76;39.71;101406.06;5218564;27;20242;-67
2024/04/10 00:23:05;;;;;;;0.20;0.10;;;;;;;23.75;39.56;101418.16;5209189;27;20327;-67
2024/04/10 00:25:31;;;;;;;0.20;0.10;;;;;;;23.75;39.56;101418.16;5192563;27;21105;-67
2024/04/10 00:28:01;;;;;;;0.20;0.10;;;;;;;23.75;39.62;101414.56;5184042;27;20339;-67
2024/04/10 00:30:27;;;;;;;0.20;0.10;;;;;;;23.73;39.79;101420.28;5209122;27;20278;-67
2024/04/10 00:32:53;;;;;;;0.20;0.10;;;;;;;23.74;39.82;101421.09;5207482;27;20282;-67
2024/04/10 00:35:19;;;;;;;0.20;0.10;;;;;;;23.73;39.82;101431.28;5201068;27;20335;-67
2024/04/10 00:37:45;;;;;;;0.20;0.10;;;;;;;23.73;39.64;101428.53;5217075;27;20294;-67
2024/04/10 00:40:11;;;;;;;0.20;0.10;;;;;;;-146.84;100.00;66378.44;5178295;27;20248;-66
2024/04/10 00:42:38;;;;;;;0.20;0.10;;;;;;;23.72;39.49;101434.28;5202916;27;20285;-67
2024/04/10 00:45:04;;;;;;;0.20;0.10;;;;;;;23.70;39.63;101431.78;5221127;27;20246;-67
2024/04/10 00:47:30;;;;;;;0.20;0.10;;;;;;;23.70;39.73;101430.91;5201020;27;20245;-67
2024/04/10 00:49:56;;;;;;;0.20;0.10;;;;;;;23.70;39.59;101441.94;5187391;27;20233;-67
2024/04/10 00:52:23;;;;;;;0.20;0.10;;;;;;;23.68;39.54;101442.19;5193285;27;20343;-67
2024/04/10 00:54:49;;;;;;;0.20;0.10;;;;;;;23.68;39.54;101442.19;5204589;27;20242;-67
2024/04/10 00:57:16;;;;;;;0.20;0.10;;;;;;;23.67;39.86;101448.75;5213630;27;20826;-67
2024/04/10 00:59:42;;;;;;;0.20;0.10;;;;;;;23.67;39.73;101451.50;5217810;27;20272;-67
2024/04/10 01:02:08;;;;;;;0.20;0.10;;;;;;;23.67;39.73;101451.50;5207272;27;20235;-67
2024/04/10 01:04:34;;;;;;;0.20;0.10;;;;;;;23.65;39.60;101453.66;5214518;27;20290;-67
2024/04/10 01:07:07;;;;;;;0.20;0.10;;;;;;;23.64;39.62;101460.25;5184918;27;20738;-67
2024/04/10 01:09:33;;;;;;;0.20;0.10;;;;;;;23.63;39.94;101462.16;5198190;27;20235;-67
2024/04/10 01:11:59;;;;;;;0.20;0.10;;;;;;;23.63;39.60;101467.66;5197991;27;20239;-67
2024/04/10 01:14:25;;;;;;;0.20;0.10;;;;;;;23.62;39.75;101474.25;5191420;27;20354;-67
2024/04/10 01:16:52;;;;;;;0.20;0.10;;;;;;;23.62;39.75;101474.25;5215150;27;20325;-67
2024/04/10 01:19:18;;;;;;;0.20;0.10;;;;;;;23.62;40.00;101476.16;5194554;27;20239;-67
2024/04/10 01:21:45;;;;;;;0.20;0.10;;;;;;;-146.84;100.00;66378.44;5187230;27;20339;-67
2024/04/10 01:24:12;;;;;;;0.20;0.10;;;;;;;23.61;39.67;101485.50;5176815;27;20266;-68
2024/04/10 01:26:38;;;;;;;0.20;0.10;;;;;;;-146.84;100.00;66378.44;5182074;27;20269;-67
2024/04/10 01:29:04;;;;;;;0.20;0.10;;;;;;;23.60;39.59;101492.06;5218120;27;20311;-67
2024/04/10 01:31:30;;;;;;;0.20;0.10;;;;;;;23.59;39.83;101499.50;5195936;27;20228;-67
2024/04/10 01:33:57;;;;;;;0.20;0.10;;;;;;;23.60;39.67;101497.56;5228516;27;20293;-67
2024/04/10 01:36:23;;;;;;;0.20;0.10;;;;;;;23.59;39.90;101505.00;5184462;27;20239;-67
2024/04/10 01:38:50;;;;;;;0.20;0.10;;;;;;;23.58;39.84;101514.31;5200031;27;20247;-67
2024/04/10 01:41:16;;;;;;;0.20;0.10;;;;;;;23.58;40.04;101516.25;5211813;27;20299;-67
2024/04/10 01:43:42;;;;;;;0.20;0.10;;;;;;;-146.84;100.00;66378.44;5223389;27;20786;-67
2024/04/10 01:46:08;;;;;;;0.20;0.10;;;;;;;-146.84;100.00;66378.44;5208027;27;20350;-67
2024/04/10 01:48:34;;;;;;;0.20;0.10;;;;;;;-146.84;100.00;66378.44;5193341;27;20739;-67
2024/04/10 01:51:01;;;;;;;0.20;0.10;;;;;;;-146.84;100.00;66378.44;5192350;27;20227;-67
2024/04/10 01:53:27;;;;;;;0.20;0.10;;;;;;;-146.84;100.00;66378.44;5188604;27;20252;-67
2024/04/10 01:55:53;;;;;;;0.20;0.10;;;;;;;23.54;39.84;101546.19;5208047;27;20238;-67
2024/04/10 01:58:19;;;;;;;0.20;0.10;;;;;;;23.54;39.67;101545.31;5211135;27;20338;-67
2024/04/10 02:00:45;;;;;;;0.20;0.10;;;;;;;-146.84;100.00;66378.44;5208682;27;20262;-67
2024/04/10 02:03:11;;;;;;;0.20;0.10;;;;;;;-146.84;100.00;66378.44;5218704;27;20255;-67
2024/04/10 02:05:38;;;;;;;0.20;0.10;;;;;;;23.54;39.67;101545.31;5178695;27;20235;-67
2024/04/10 02:08:05;;;;;;;0.20;0.10;;;;;;;-146.84;100.00;66378.44;5216939;27;20301;-67
2024/04/10 02:10:31;;;;;;;0.20;0.10;;;;;;;23.51;39.63;101565.06;5230537;27;20269;-67
2024/04/10 02:12:57;;;;;;;0.20;0.10;;;;;;;-146.84;100.00;66378.44;5180522;27;20257;-67
2024/04/10 02:15:23;;;;;;;0.20;0.10;;;;;;;-146.84;100.00;66378.44;5205676;27;20240;-67
2024/04/10 02:17:49;;;;;;;0.20;0.10;;;;;;;-146.84;100.00;66378.44;5207103;27;20633;-67
2024/04/10 02:20:17;;;;;;;0.20;0.10;;;;;;;-146.84;100.00;66378.44;5218700;27;20227;-67
2024/04/10 02:22:43;;;;;;;0.20;0.10;;;;;;;-146.84;100.00;66378.44;5204044;27;20242;-67
2024/04/10 02:25:09;;;;;;;0.20;0.10;;;;;;;-146.84;100.00;66378.44;5212931;27;20818;-67
2024/04/10 02:27:35;;;;;;;0.20;0.10;;;;;;;-146.84;100.00;66378.44;5177757;27;20634;-67
2024/04/10 02:30:02;;;;;;;0.20;0.10;;;;;;;-146.84;100.00;66378.44;5207404;27;20797;-68
2024/04/10 02:32:28;;;;;;;0.20;0.10;;;;;;;-146.84;100.00;66378.44;5202663;27;20279;-67
2024/04/10 02:34:54;;;;;;;0.20;0.10;;;;;;;-146.84;100.00;66378.44;5191712;27;20672;-67
2024/04/10 02:37:20;;;;;;;0.20;0.10;;;;;;;-146.84;100.00;66378.44;5213820;27;20236;-67
2024/04/10 02:39:46;;;;;;;0.20;0.10;;;;;;;-146.84;100.00;66378.44;5222964;27;20230;-67
2024/04/10 02:42:13;;;;;;;0.20;0.10;;;;;;;-146.84;100.00;66378.44;5226230;27;20239;-67
2024/04/10 02:44:39;;;;;;;0.20;0.10;;;;;;;-146.84;100.00;66378.44;5212515;27;20837;-66
2024/04/10 02:47:05;;;;;;;0.20;0.10;;;;;;;-146.84;100.00;66378.44;5195847;27;20239;-67
2024/04/10 02:49:32;;;;;;;0.20;0.10;;;;;;;-146.84;100.00;66378.44;5211746;27;20243;-67
2024/04/10 02:51:58;;;;;;;0.20;0.10;;;;;;;-146.84;100.00;66378.44;5201180;27;20282;-67
2024/04/10 02:54:24;;;;;;;0.20;0.10;;;;;;;-146.84;100.00;66378.44;5190507;27;20620;-67
2024/04/10 02:56:50;;;;;;;0.20;0.10;;;;;;;-146.84;100.00;66378.44;5172573;27;20334;-67
2024/04/10 02:59:16;;;;;;;0.20;0.00;;;;;;;-146.84;100.00;66378.44;5216974;27;20250;-67
2024/04/10 03:01:42;;;;;;;0.20;0.10;;;;;;;-146.84;100.00;66378.44;5226948;27;20230;-66
2024/04/10 03:04:08;;;;;;;0.20;0.10;;;;;;;-146.84;100.00;66378.44;5203090;27;20691;-67
2024/04/10 03:06:35;;;;;;;0.20;0.10;;;;;;;-146.84;100.00;66378.44;5217639;27;20564;-67
2024/04/10 03:09:01;;;;;;;0.20;0.10;;;;;;;-146.84;100.00;66378.44;5217238;27;20709;-67
2024/04/10 03:11:27;;;;;;;0.20;0.10;;;;;;;-146.84;100.00;66378.44;5203608;27;20883;-67
2024/04/10 03:13:53;;;;;;;0.20;0.10;;;;;;;-146.84;100.00;66378.44;5209544;27;20285;-67
2024/04/10 03:16:19;;;;;;;0.20;0.10;;;;;;;-146.84;100.00;66378.44;5187427;27;20386;-67
2024/04/10 03:18:45;;;;;;;0.20;0.10;;;;;;;-146.84;100.00;66378.44;5178403;27;20252;-67
2024/04/10 03:21:11;;;;;;;0.20;0.10;;;;;;;-146.84;100.00;66378.44;5221174;27;20321;-67
2024/04/10 03:23:37;;;;;;;0.20;0.10;;;;;;;-146.84;100.00;66378.44;5215483;27;20238;-67
2024/04/10 03:26:10;;;;;;;0.20;0.10;;;;;;;-146.84;100.00;66378.44;5211762;27;20237;-67
2024/04/10 03:28:36;;;;;;;0.20;0.10;;;;;;;-146.84;100.00;66378.44;5195371;27;20235;-67
2024/04/10 03:31:07;;;;;;;0.20;0.10;;;;;;;-146.84;100.00;66378.44;5177855;27;20239;-67
2024/04/10 03:33:33;;;;;;;0.20;0.10;;;;;;;-146.84;100.00;66378.44;5176610;27;20334;-67
2024/04/10 03:36:00;;;;;;;0.20;0.10;;;;;;;-146.84;100.00;66378.44;5215997;27;20844;-67
2024/04/10 03:38:26;;;;;;;0.20;0.10;;;;;;;-146.84;100.00;66378.44;5174681;27;20346;-67
2024/04/10 03:40:52;;;;;;;0.20;0.10;;;;;;;-146.84;100.00;66378.44;5202177;27;20354;-67
2024/04/10 03:43:18;;;;;;;0.20;0.10;;;;;;;-146.84;100.00;66378.44;5204806;27;20247;-67
2024/04/10 03:45:49;;;;;;;0.20;0.10;;;;;;;-146.84;100.00;66378.44;5142317;27;20244;-67
2024/04/10 03:48:15;;;;;;;0.20;0.10;;;;;;;-146.84;100.00;66378.44;5178101;27;20299;-67
2024/04/10 03:50:41;;;;;;;0.20;0.10;;;;;;;-146.84;100.00;66378.44;5228546;27;20232;-67
2024/04/10 03:53:07;;;;;;;0.20;0.10;;;;;;;-146.84;100.00;66378.44;5213738;27;20237;-67
2024/04/10 03:55:34;;;;;;;0.20;0.10;;;;;;;-146.84;100.00;66378.44;5221528;27;20734;-67
2024/04/10 03:58:00;;;;;;;0.20;0.10;;;;;;;-146.84;100.00;66378.44;5229364;27;20238;-67
2024/04/10 04:00:26;;;;;;;0.20;0.10;;;;;;;-146.84;100.00;66378.44;5196090;27;20789;-67
2024/04/10 04:02:52;;;;;;;0.20;0.10;;;;;;;-146.84;100.00;66378.44;5208431;27;20277;-67
2024/04/10 04:05:18;;;;;;;0.20;0.10;;;;;;;-146.84;100.00;66378.44;5192640;27;20276;-67
2024/04/10 04:07:45;;;;;;;0.20;0.10;;;;;;;23.34;39.79;101746.50;5213479;27;20243;-67
2024/04/10 04:10:11;;;;;;;0.20;0.10;;;;;;;23.33;39.52;101753.94;5206864;27;20231;-67
2024/04/10 04:12:37;;;;;;;0.20;0.10;;;;;;;23.34;39.77;101763.91;5177237;27;20266;-68
2024/04/10 04:15:03;;;;;;;0.20;0.10;;;;;;;23.35;39.92;101765.56;5200644;27;20277;-67
2024/04/10 04:17:29;;;;;;;0.20;0.10;;;;;;;23.35;39.90;101776.59;5217267;27;20251;-67
2024/04/10 04:19:56;;;;;;;0.20;0.10;;;;;;;23.34;40.01;101774.91;5207368;27;20330;-67
2024/04/10 04:22:22;;;;;;;0.20;0.10;;;;;;;-146.84;100.00;66378.44;5206593;27;20236;-66
2024/04/10 04:24:48;;;;;;;0.20;0.10;;;;;;;23.34;39.54;101785.94;5174731;27;20232;-66
2024/04/10 04:27:16;;;;;;;0.20;0.10;;;;;;;23.34;39.63;101785.94;5228151;27;20250;-66
2024/04/10 04:29:42;;;;;;;0.20;0.10;;;;;;;23.34;40.02;101796.06;5212680;27;20235;-66
2024/04/10 04:32:08;;;;;;;0.20;0.10;;;;;;;23.33;39.77;101800.72;5226445;27;20355;-65
2024/04/10 04:34:34;;;;;;;0.20;0.10;;;;;;;23.31;39.79;101791.84;5208451;27;20236;-66
2024/04/10 04:37:00;;;;;;;0.20;0.10;;;;;;;23.32;40.11;101801.81;5205382;27;20853;-66
2024/04/10 04:39:26;;;;;;;0.20;0.10;;;;;;;23.33;39.98;101811.75;5206697;27;20235;-66
2024/04/10 04:41:52;;;;;;;0.20;0.10;;;;;;;-146.84;100.00;66378.44;5195309;27;20246;-66
2024/04/10 04:44:19;;;;;;;0.20;0.10;;;;;;;-146.84;100.00;66378.44;5220819;27;20286;-66
2024/04/10 04:46:45;;;;;;;0.20;0.10;;;;;;;-146.84;100.00;66378.44;5172073;27;21057;-66
2024/04/10 04:49:11;;;;;;;0.20;0.10;;;;;;;-146.84;100.00;66378.44;5177365;27;20722;-67
2024/04/10 04:51:37;;;;;;;0.20;0.10;;;;;;;-146.84;100.00;66378.44;5178876;27;20239;-66
2024/04/10 04:54:04;;;;;;;0.20;0.10;;;;;;;23.34;39.75;101840.13;5203679;27;20282;-66
2024/04/10 04:56:30;;;;;;;0.20;0.10;;;;;;;23.33;39.99;101844.78;5216468;27;20299;-65
2024/04/10 04:58:56;;;;;;;0.20;0.10;;;;;;;23.32;39.70;101848.63;5208439;27;20242;-67
2024/04/10 05:01:22;;;;;;;0.20;0.10;;;;;;;23.32;40.05;101853.25;5217680;27;20314;-66
2024/04/10 05:06:33;;;;;;;0.20;0.10;;;;;;;23.31;39.85;101857.94;5209805;27;20266;-66
2024/04/10 05:08:59;;;;;;;0.20;0.10;;;;;;;23.31;39.63;101871.69;5177555;27;20286;-66
2024/04/10 05:11:25;;;;;;;0.20;0.10;;;;;;;23.32;39.86;101875.28;5213567;27;20740;-66
2024/04/10 05:13:51;;;;;;;0.20;0.10;;;;;;;-146.84;100.00;66378.44;5205850;27;20289;-66
2024/04/10 05:16:18;;;;;;;0.20;0.10;;;;;;;23.31;39.80;101882.72;5215761;27;20234;-66
2024/04/10 05:18:44;;;;;;;0.20;0.10;;;;;;;23.31;39.86;101884.63;5190446;27;20576;-66
2024/04/10 05:21:10;;;;;;;0.20;0.10;;;;;;;23.30;39.70;101885.69;5183970;27;20234;-66
2024/04/10 05:23:36;;;;;;;0.20;0.10;;;;;;;23.30;39.87;101900.31;5210036;27;20285;-68
2024/04/10 05:26:05;;;;;;;0.20;0.10;;;;;;;23.30;39.67;101904.97;5213988;27;20234;-66
2024/04/10 05:28:32;;;;;;;0.20;0.10;;;;;;;23.31;39.64;101906.66;5204150;27;20573;-66
2024/04/10 05:31:10;;;;;;;0.20;0.10;;;;;;;-146.84;100.00;66378.44;5162869;27;20241;-66
2024/04/10 05:33:36;;;;;;;0.20;0.10;;;;;;;-146.84;100.00;66378.44;5204196;27;20269;-66
2024/04/10 05:36:06;;;;;;;0.20;0.10;;;;;;;23.31;40.09;101929.50;5207829;27;20922;-66
2024/04/10 05:38:33;;;;;;;0.20;0.10;;;;;;;-146.84;100.00;66378.44;5178293;27;20231;-67
2024/04/10 05:40:59;;;;;;;0.20;0.10;;;;;;;-146.84;100.00;66378.44;5216481;27;20278;-66
2024/04/10 05:43:25;;;;;;;0.20;0.10;;;;;;;-146.84;100.00;66378.44;5221806;27;20227;-67
2024/04/10 05:45:55;;;;;;;0.20;0.10;;;;;;;-146.84;100.00;66378.44;5194192;27;20255;-66
2024/04/10 05:48:22;;;;;;;0.20;0.10;;;;;;;-146.84;100.00;66378.44;5205797;27;20235;-65
2024/04/10 05:50:48;;;;;;;0.20;0.10;;;;;;;-146.84;100.00;66378.44;5190570;27;20234;-66
2024/04/10 05:53:14;;;;;;;0.20;0.10;;;;;;;23.47;39.88;101954.84;5173778;27;20350;-66
2024/04/10 05:55:40;;;;;;;0.20;0.10;;;;;;;23.47;39.88;101954.84;5214106;27;20239;-67
2024/04/10 05:58:06;;;;;;;0.20;0.10;;;;;;;-146.84;100.00;66378.44;5190744;27;20722;-66
2024/04/10 06:00:32;;;;;;;0.20;0.10;;;;;;;-146.84;100.00;66378.44;5187948;27;20291;-66
2024/04/10 06:02:58;;;;;;;0.20;0.10;;;;;;;23.56;39.64;101976.41;5197677;27;20603;-66
2024/04/10 06:05:25;;;;;;;0.20;0.10;;;;;;;23.56;39.64;101976.41;5189084;27;20246;-66
2024/04/10 06:07:51;;;;;;;0.20;0.10;;;;;;;23.59;39.39;101986.16;5206909;27;20755;-66
2024/04/10 06:10:19;;;;;;;0.20;0.10;;;;;;;23.58;39.40;101981.72;5197798;27;20238;-65
2024/04/10 06:12:49;;;;;;;0.20;0.10;;;;;;;23.58;38.98;101995.47;5175980;27;20281;-67
2024/04/10 06:15:16;;;;;;;0.20;0.10;;;;;;;23.58;39.40;101995.47;5189666;27;20254;-67
2024/04/10 06:17:42;;;;;;;0.20;0.10;;;;;;;23.58;38.95;101996.31;5188163;27;20569;-67
2024/04/10 06:20:11;;;;;;;0.20;0.10;;;;;;;-146.84;100.00;66378.44;5193937;27;20297;-66
2024/04/10 06:22:38;;;;;;;0.20;0.10;;;;;;;23.59;38.89;102009.03;5199402;27;20241;-67
2024/04/10 06:25:04;;;;;;;0.20;0.10;;;;;;;23.60;38.85;102009.88;5191741;27;20830;-66
2024/04/10 06:27:30;;;;;;;0.20;0.10;;;;;;;23.60;38.72;102007.97;5213816;27;20299;-66
2024/04/10 06:29:56;;;;;;;0.20;0.10;;;;;;;23.60;38.64;102016.22;5176429;27;21022;-71
2024/04/10 06:32:22;;;;;;;0.20;0.10;;;;;;;-146.84;100.00;66378.44;5175438;27;20370;-72
2024/04/10 06:34:48;;;;;;;0.20;0.10;;;;;;;-146.84;100.00;66378.44;5140107;27;20307;-72
2024/04/10 06:37:15;;;;;;;0.20;0.10;;;;;;;-146.84;100.00;66378.44;5179809;27;20350;-68
2024/04/10 06:39:41;;;;;;;0.20;0.10;;;;;;;23.60;38.64;102016.22;5201484;27;20294;-70
2024/04/10 06:42:07;;;;;;;0.20;0.13;;;;;;;23.67;39.87;102038.22;5179024;27;20230;-68
2024/04/10 06:44:34;;;;;;;0.20;0.10;;;;;;;23.71;39.30;102045.00;5175397;27;20243;-67
2024/04/10 06:47:00;;;;;;;0.20;0.10;;;;;;;23.75;39.60;102046.28;5206664;27;20286;-70
2024/04/10 06:49:29;;;;;;;0.20;0.10;;;;;;;23.81;40.14;102050.94;5221473;27;20235;-70
2024/04/10 06:51:56;;;;;;;0.20;0.10;;;;;;;23.86;39.88;102051.09;5174783;27;20579;-70
2024/04/10 06:54:22;;;;;;;0.20;0.10;;;;;;;23.93;40.41;102055.75;5204126;27;20364;-69
2024/04/10 06:56:49;;;;;;;0.20;0.20;;;;;;;23.97;39.97;102056.97;5201679;27;20786;-69
2024/04/10 06:59:16;;;;;;;0.20;0.10;;;;;;;24.00;39.63;102065.66;5207200;27;20238;-68
2024/04/10 07:01:42;;;;;;;0.20;0.10;;;;;;;24.04;39.56;102066.06;5176153;27;20286;-69
2024/04/10 07:04:08;;;;;;;0.20;0.10;;;;;;;24.08;39.66;102061.81;5217057;27;20346;-69
2024/04/10 07:06:35;;;;;;;0.20;0.10;;;;;;;24.11;39.27;102075.16;5176885;27;20572;-69
2024/04/10 07:09:01;;;;;;;0.20;0.10;;;;;;;24.15;39.07;102072.78;5209979;27;20243;-67
2024/04/10 07:11:27;;;;;;;0.20;0.10;;;;;;;24.17;38.92;102082.53;5208167;27;20798;-68
2024/04/10 07:13:54;;;;;;;0.20;0.10;;;;;;;24.18;38.96;102078.69;5209996;27;20235;-68
2024/04/10 07:16:22;;;;;;;0.20;0.10;;;;;;;24.21;38.53;102085.69;5182378;27;20285;-68
2024/04/10 07:18:48;;;;;;;0.20;0.10;;;;;;;24.22;38.91;102090.16;5200515;27;20243;-68
2024/04/10 07:21:15;;;;;;;0.20;0.10;;;;;;;24.23;38.51;102086.31;5211715;27;20234;-68
2024/04/10 07:23:42;;;;;;;0.20;0.10;;;;;;;24.23;38.31;102089.91;5210213;27;20235;-67
2024/04/10 07:26:15;;;;;;;0.20;0.10;;;;;;;24.26;38.62;102092.25;5171484;27;20719;-67
2024/04/10 07:28:46;;;;;;;0.20;0.10;;;;;;;24.28;38.30;102101.13;5190043;27;20758;-67
2024/04/10 07:31:15;;;;;;;0.20;0.10;;;;;;;24.28;38.34;102092.88;5208709;27;20231;-68
2024/04/10 07:33:41;;;;;;;0.20;0.10;;;;;;;24.28;38.43;102106.66;5246185;27;20239;-68
2024/04/10 07:36:12;;;;;;;0.20;0.10;;;;;;;24.28;38.50;102109.41;5219784;27;20921;-67
2024/04/10 07:38:39;;;;;;;0.20;0.10;;;;;;;24.31;38.23;102118.31;5216553;27;20235;-68
2024/04/10 07:41:05;;;;;;;0.20;0.10;;;;;;;24.35;38.24;102119.53;5179701;27;20243;-68
2024/04/10 07:43:34;;;;;;;0.20;0.10;;;;;;;24.48;37.82;102127.75;5209416;27;20239;-68
2024/04/10 07:46:26;;;;;;;0.20;0.10;;;;;;;24.44;38.38;102127.34;5156756;27;20297;-67
2024/04/10 07:48:54;;;;;;;0.20;0.10;;;;;;;24.41;38.22;102129.69;5200569;27;20284;-68
2024/04/10 07:51:21;;;;;;;0.20;0.10;;;;;;;24.36;38.52;102130.34;5204252;27;20308;-67
2024/04/10 07:53:48;;;;;;;0.20;0.10;;;;;;;24.33;38.35;102141.84;5180592;27;20247;-68
2024/04/10 07:56:14;;;;;;;0.20;0.10;;;;;;;24.29;38.65;102137.81;5228043;27;20316;-68
2024/04/10 07:58:41;;;;;;;0.20;0.10;;;;;;;24.27;38.43;102142.72;5193119;27;20343;-66
2024/04/10 08:01:08;;;;;;;0.20;0.10;;;;;;;24.26;38.55;102146.53;5219303;27;20285;-66
2024/04/10 08:03:34;;;;;;;0.20;0.10;;;;;;;24.24;38.64;102154.19;5179079;27;20240;-67
2024/04/10 08:06:05;;;;;;;0.20;0.10;;;;;;;24.23;38.96;102153.31;5176317;27;20266;-71
2024/04/10 08:08:32;;;;;;;0.20;0.20;;;;;;;24.26;39.22;102165.84;5167217;27;20232;-68
2024/04/10 08:11:07;;;;;;;0.20;0.10;;;;;;;24.28;39.28;102172.84;5188722;27;20235;-68
2024/04/10 08:13:33;;;;;;;0.20;0.10;;;;;;;24.30;39.17;102164.31;5171560;27;20235;-68
2024/04/10 08:16:07;;;;;;;0.20;0.10;;;;;;;24.34;39.42;102173.00;5213592;27;20658;-70
2024/04/10 08:18:37;;;;;;;0.20;0.10;;;;;;;24.37;39.10;102178.06;5179843;27;20243;-70
2024/04/10 08:21:12;;;;;;;0.20;0.10;;;;;;;24.39;39.32;102178.69;5203440;27;20327;-70
2024/04/10 08:23:39;;;;;;;0.20;0.10;;;;;;;24.41;39.31;102177.41;5176316;27;20232;-68
2024/04/10 08:26:11;;;;;;;0.20;0.10;;;;;;;24.44;39.54;102185.25;5185616;27;20294;-68
2024/04/10 08:28:45;;;;;;;0.20;0.10;;;;;;;24.48;39.38;102188.44;5176366;27;20226;-69
2024/04/10 08:31:12;;;;;;;0.20;0.10;;;;;;;24.52;39.37;102183.34;5210677;27;20800;-69
2024/04/10 08:33:39;;;;;;;0.20;0.10;;;;;;;24.56;39.50;102184.59;5198569;27;20706;-68
2024/04/10 08:36:06;;;;;;;0.20;0.10;;;;;;;24.59;39.47;102178.63;5178506;27;20258;-69
2024/04/10 08:38:33;;;;;;;0.20;0.10;;;;;;;24.61;39.45;102190.28;5177044;27;20282;-67
2024/04/10 08:41:00;;;;;;;0.20;0.10;;;;;;;24.62;39.24;102184.56;5204355;27;20243;-71
2024/04/10 08:43:31;;;;;;;0.20;0.10;;;;;;;24.64;39.30;102187.06;5207880;27;20235;-67
2024/04/10 08:45:57;;;;;;;0.20;0.10;;;;;;;24.65;39.69;102186.84;5181230;27;20274;-74
2024/04/10 08:48:24;;;;;;;0.20;0.10;;;;;;;24.67;39.68;102187.47;5206265;27;20243;-69
2024/04/10 08:50:50;;;;;;;0.20;0.10;;;;;;;24.71;39.72;102192.53;5203674;27;20262;-68
2024/04/10 08:53:17;;;;;;;0.20;0.10;;;;;;;24.74;39.54;102197.63;5178627;27;20238;-70
2024/04/10 08:55:46;;;;;;;0.20;0.10;;;;;;;-146.84;100.00;66378.44;5176034;27;20281;-71
2024/04/10 08:58:12;;;;;;;0.20;0.10;;;;;;;24.76;40.03;102207.38;5174807;27;20243;-69
2024/04/10 09:00:45;;;;;;;0.20;0.10;;;;;;;24.79;39.78;102209.69;5175256;27;20266;-68
2024/04/10 09:03:14;;;;;;;0.20;0.10;;;;;;;24.81;39.53;102215.00;5183401;27;20235;-68
2024/04/10 09:05:41;;;;;;;0.20;0.10;;;;;;;24.83;39.71;102221.97;5180006;27;20706;-69
2024/04/10 09:08:10;;;;;;;0.20;0.10;;;;;;;24.85;39.79;102228.13;5176043;27;20247;-66
2024/04/10 09:10:36;;;;;;;0.20;0.10;;;;;;;24.86;39.91;102224.28;5173138;27;20259;-67
2024/04/10 09:13:10;;;;;;;0.20;0.10;;;;;;;24.88;39.61;102224.91;5168703;27;20239;-69
2024/04/10 09:15:37;;;;;;;0.20;0.10;;;;;;;24.90;40.21;102233.81;5174929;27;20278;-70
2024/04/10 09:18:04;;;;;;;0.20;0.10;;;;;;;24.93;39.51;102232.50;5212696;27;20564;-68
2024/04/10 09:20:31;;;;;;;0.20;0.10;;;;;;;24.94;39.76;102234.22;5193038;27;21156;-68
2024/04/10 09:23:04;;;;;;;0.20;0.10;;;;;;;24.96;39.49;102232.09;5208995;27;20302;-68
2024/04/10 09:25:31;;;;;;;0.20;0.10;;;;;;;25.00;39.80;102235.22;5189399;27;20601;-69
2024/04/10 09:28:02;;;;;;;0.20;0.10;;;;;;;25.02;39.47;102239.50;5185970;27;20250;-68
2024/04/10 09:30:29;;;;;;;0.20;0.10;;;;;;;25.03;39.58;102234.81;5168258;27;20884;-67
2024/04/10 09:32:57;;;;;;;0.20;0.17;;;;;;;25.05;39.28;102233.50;5221954;27;20305;-67
2024/04/10 09:35:25;;;;;;;0.20;0.10;;;;;;;25.06;39.00;102237.09;5185653;27;20280;-68
2024/04/10 09:37:57;;;;;;;0.20;0.10;;;;;;;25.07;39.02;102239.66;5155323;27;20770;-68
2024/04/10 09:40:27;;;;;;;0.20;0.10;;;;;;;25.07;39.09;102245.19;5171325;27;20231;-66
2024/04/10 09:43:05;;;;;;;0.20;0.20;;;;;;;25.06;38.93;102251.75;5205186;27;20247;-65
2024/04/10 09:45:36;;;;;;;0.20;0.10;;;;;;;25.03;38.91;102259.66;5162770;27;20829;-65
2024/04/10 09:48:08;;;;;;;0.20;0.10;;;;;;;25.01;39.07;102259.03;5187526;27;20233;-66
2024/04/10 09:50:36;;;;;;;0.20;0.10;;;;;;;24.98;38.87;102259.47;5194003;27;20235;-66
2024/04/10 09:53:06;;;;;;;0.20;0.10;;;;;;;24.96;38.97;102264.38;5183399;27;20248;-65
2024/04/10 09:55:33;;;;;;;0.20;0.10;;;;;;;24.92;38.62;102263.97;5171446;27;20307;-65
2024/04/10 09:58:04;;;;;;;0.20;0.10;;;;;;;24.91;38.72;102273.31;5218904;27;20238;-66
2024/04/10 10:00:31;;;;;;;0.20;0.10;;;;;;;24.88;39.13;102268.22;5166198;27;20314;-65
2024/04/10 10:03:10;;;;;;;0.20;0.10;;;;;;;24.88;38.68;102273.75;5175417;27;20769;-66
2024/04/10 10:05:39;;;;;;;0.20;0.10;;;;;;;24.86;39.00;102273.13;5177076;27;20242;-65
2024/04/10 10:08:17;;;;;;;0.20;0.10;;;;;;;24.83;38.82;102282.69;5202854;27;20885;-67
2024/04/10 10:10:52;;;;;;;0.20;0.10;;;;;;;24.83;38.89;102273.56;5208026;27;20813;-67
2024/04/10 10:13:40;;;;;;;0.20;0.10;;;;;;;24.82;38.82;102271.88;5210074;27;20285;-66
2024/04/10 10:16:07;;;;;;;0.20;0.10;;;;;;;24.82;38.84;102283.78;5220315;27;20746;-66
2024/04/10 10:18:33;;;;;;;0.20;0.10;;;;;;;24.80;38.89;102269.34;5192786;27;20641;-66
2024/04/10 10:21:02;;;;;;;0.20;0.10;;;;;;;24.80;38.92;102268.50;5181261;27;20231;-65
2024/04/10 10:23:28;;;;;;;0.20;0.10;;;;;;;24.80;39.16;102280.38;5211510;27;20370;-66
2024/04/10 10:25:55;;;;;;;0.20;0.20;;;;;;;24.79;38.88;102272.31;5203618;27;20289;-65
2024/04/10 10:28:21;;;;;;;0.20;0.10;;;;;;;24.78;39.00;102277.00;5188350;27;20282;-66
2024/04/10 10:30:48;;;;;;;0.20;0.10;;;;;;;24.78;39.27;102276.16;5212272;27;20794;-66
2024/04/10 10:33:21;;;;;;;0.20;0.10;;;;;;;24.76;39.17;102270.84;5204294;27;20269;-66
2024/04/10 10:35:47;;;;;;;0.20;0.10;;;;;;;24.77;38.87;102279.97;5179574;27;20247;-67
2024/04/10 10:38:13;;;;;;;0.20;0.10;;;;;;;24.77;39.14;102279.97;5232292;27;20239;-65
2024/04/10 10:40:39;;;;;;;0.20;0.10;;;;;;;24.76;39.03;102292.09;5198496;27;20613;-66
2024/04/10 10:43:07;;;;;;;0.20;0.10;;;;;;;24.75;38.94;102285.69;5193272;27;20236;-65
2024/04/10 10:45:34;;;;;;;0.20;0.10;;;;;;;24.76;39.18;102289.34;5174608;27;20298;-65
2024/04/10 10:48:04;;;;;;;0.20;0.05;;;;;;;24.73;38.85;102293.38;5183845;27;20242;-66
2024/04/10 10:50:31;;;;;;;0.20;0.10;;;;;;;24.73;39.25;102295.28;5196926;27;20578;-66
2024/04/10 10:52:58;;;;;;;0.20;0.10;;;;;;;24.72;38.84;102293.59;5183413;27;20239;-65
2024/04/10 10:55:24;;;;;;;0.20;0.20;;;;;;;24.71;39.33;102298.28;5163410;27;21108;-65
2024/04/10 10:58:03;;;;;;;0.20;0.10;;;;;;;24.69;39.14;102304.00;5179481;27;20235;-65
2024/04/10 11:00:34;;;;;;;0.20;0.10;;;;;;;24.70;39.10;102302.09;5182243;27;20239;-65
2024/04/10 11:03:09;;;;;;;0.20;0.10;;;;;;;24.71;39.20;102300.16;5174979;27;20239;-65
2024/04/10 11:05:35;;;;;;;0.20;0.10;;;;;;;24.68;39.10;102294.00;5177597;27;22559;-66
2024/04/10 11:08:02;;;;;;;0.20;0.10;;;;;;;24.67;38.92;102300.63;5180385;27;20293;-66
2024/04/10 11:10:28;;;;;;;0.20;0.10;;;;;;;24.66;39.10;102298.94;5168028;27;20235;-65
2024/04/10 11:13:08;;;;;;;0.20;0.10;;;;;;;24.66;39.15;102301.69;5219956;27;20719;-66
2024/04/10 11:15:50;;;;;;;0.20;0.10;;;;;;;24.63;38.86;102304.88;5216125;27;20704;-66
2024/04/10 11:18:17;;;;;;;0.20;0.10;;;;;;;24.61;39.09;102290.44;5207929;27;20606;-67
2024/04/10 11:20:45;;;;;;;0.20;0.10;;;;;;;24.62;39.01;102299.59;5187137;27;20239;-65
2024/04/10 11:23:11;;;;;;;0.20;0.10;;;;;;;24.61;38.95;102298.72;5213864;27;20228;-66